createdAt,value
2017-09-10T00:00:24.436Z,13.00
2017-09-10T00:02:50.586Z,12.90
2017-09-10T00:05:16.792Z,12.80
2017-09-10T00:07:43.731Z,12.70
2017-09-10T00:10:09.927Z,12.60
2017-09-10T00:12:36.117Z,12.70
2017-09-10T00:15:02.295Z,12.70
2017-09-10T00:17:28.458Z,12.80
2017-09-10T00:19:54.665Z,12.80
2017-09-10T00:22:20.859Z,12.70
2017-09-10T00:24:47.050Z,12.60
2017-09-10T00:27:13.251Z,12.60
2017-09-10T00:29:39.436Z,12.50
2017-09-10T00:32:05.596Z,12.60
2017-09-10T00:34:31.762Z,12.60
2017-09-10T00:36:57.925Z,12.50
2017-09-10T00:39:24.080Z,12.60
2017-09-10T00:41:50.270Z,12.60
2017-09-10T00:44:16.489Z,12.60
2017-09-10T00:46:42.756Z,12.60
2017-09-10T00:49:08.899Z,12.70
2017-09-10T00:51:35.081Z,12.70
2017-09-10T00:54:01.267Z,12.80
2017-09-10T00:56:27.535Z,12.70
2017-09-10T00:58:53.691Z,12.80
2017-09-10T01:01:19.896Z,12.70
2017-09-10T01:03:46.060Z,12.70
2017-09-10T01:06:12.232Z,12.70
2017-09-10T01:08:39.143Z,12.70
2017-09-10T01:11:05.289Z,12.60
2017-09-10T01:13:32.192Z,12.70
2017-09-10T01:15:59.256Z,12.60
2017-09-10T01:18:25.483Z,12.60
2017-09-10T01:20:51.631Z,12.60
2017-09-10T01:23:17.853Z,12.60
2017-09-10T01:25:44.028Z,12.60
2017-09-10T01:28:10.225Z,12.50
2017-09-10T01:30:36.411Z,12.40
2017-09-10T01:33:02.575Z,12.40
2017-09-10T01:35:28.721Z,12.50
2017-09-10T01:37:54.987Z,12.50
2017-09-10T01:40:21.136Z,12.60
2017-09-10T01:42:47.353Z,12.60
2017-09-10T01:45:13.515Z,12.60
2017-09-10T01:47:39.671Z,12.50
2017-09-10T01:50:05.883Z,12.50
2017-09-10T01:52:32.068Z,12.50
2017-09-10T01:54:58.262Z,12.50
2017-09-10T01:57:24.453Z,12.50
2017-09-10T01:59:51.389Z,12.40
2017-09-10T02:02:17.531Z,12.40
2017-09-10T02:04:43.691Z,12.50
2017-09-10T02:07:09.859Z,12.50
2017-09-10T02:09:36.010Z,12.50
2017-09-10T02:12:02.190Z,12.50
2017-09-10T02:14:28.419Z,12.60
2017-09-10T02:16:54.696Z,12.60
2017-09-10T02:19:20.902Z,12.60
2017-09-10T02:21:47.064Z,12.60
2017-09-10T02:24:13.224Z,12.60
2017-09-10T02:26:39.382Z,12.50
2017-09-10T02:29:05.558Z,12.50
2017-09-10T02:31:31.746Z,12.50
2017-09-10T02:33:58.692Z,12.50
2017-09-10T02:36:24.879Z,12.50
2017-09-10T02:38:51.140Z,12.40
2017-09-10T02:41:17.327Z,12.40
2017-09-10T02:43:43.505Z,12.40
2017-09-10T02:46:09.635Z,12.40
2017-09-10T02:48:36.547Z,12.50
2017-09-10T02:51:02.730Z,12.50
2017-09-10T02:53:28.899Z,12.50
2017-09-10T02:55:55.066Z,12.50
2017-09-10T02:58:21.202Z,12.50
2017-09-10T03:00:47.471Z,12.50
2017-09-10T03:03:13.644Z,12.50
2017-09-10T03:05:40.565Z,12.50
2017-09-10T03:08:06.735Z,12.40
2017-09-10T03:10:32.890Z,12.40
2017-09-10T03:12:59.763Z,12.40
2017-09-10T03:15:25.916Z,12.40
2017-09-10T03:17:52.038Z,12.40
2017-09-10T03:20:18.955Z,12.30
2017-09-10T03:22:45.087Z,12.30
2017-09-10T03:25:11.248Z,12.40
2017-09-10T03:27:37.453Z,12.30
2017-09-10T03:30:03.619Z,12.30
2017-09-10T03:32:30.517Z,12.30
2017-09-10T03:34:56.670Z,12.30
2017-09-10T03:37:22.841Z,12.30
2017-09-10T03:39:49.009Z,12.20
2017-09-10T03:42:15.171Z,12.20
2017-09-10T03:44:41.317Z,12.20
2017-09-10T03:47:08.237Z,12.20
2017-09-10T03:49:34.378Z,12.20
2017-09-10T03:52:00.638Z,12.20
2017-09-10T03:54:26.848Z,12.20
2017-09-10T03:56:53.041Z,12.10
2017-09-10T03:59:19.174Z,12.10
2017-09-10T04:01:45.366Z,12.10
2017-09-10T04:04:11.526Z,12.10
2017-09-10T04:06:38.496Z,12.10
2017-09-10T04:09:04.664Z,12.10
2017-09-10T04:11:31.570Z,12.10
2017-09-10T04:13:57.715Z,12.10
2017-09-10T04:16:24.644Z,12.10
2017-09-10T04:18:50.821Z,12.00
2017-09-10T04:21:17.023Z,12.10
2017-09-10T04:23:43.213Z,12.00
2017-09-10T04:26:09.487Z,12.00
2017-09-10T04:28:36.393Z,11.90
2017-09-10T04:31:02.658Z,11.90
2017-09-10T04:33:28.849Z,11.90
2017-09-10T04:35:55.015Z,11.90
2017-09-10T04:38:21.171Z,11.80
2017-09-10T04:40:48.078Z,11.80
2017-09-10T04:43:14.251Z,11.80
2017-09-10T04:45:40.445Z,11.80
2017-09-10T04:48:06.696Z,11.80
2017-09-10T04:50:32.858Z,11.80
2017-09-10T04:52:59.043Z,11.70
2017-09-10T04:55:25.206Z,11.80
2017-09-10T04:57:51.428Z,11.70
2017-09-10T05:00:17.589Z,11.70
2017-09-10T05:02:43.798Z,11.70
2017-09-10T05:05:09.994Z,11.70
2017-09-10T05:07:36.222Z,11.70
2017-09-10T05:10:02.433Z,11.80
2017-09-10T05:12:28.604Z,11.70
2017-09-10T05:14:54.907Z,11.70
2017-09-10T05:17:21.072Z,11.70
2017-09-10T05:19:47.297Z,11.60
2017-09-10T05:22:14.236Z,11.50
2017-09-10T05:24:40.516Z,11.50
2017-09-10T05:27:06.838Z,11.60
2017-09-10T05:29:33.019Z,11.60
2017-09-10T05:31:59.154Z,11.50
2017-09-10T05:34:25.336Z,11.50
2017-09-10T05:36:51.508Z,11.50
2017-09-10T05:39:17.699Z,11.60
2017-09-10T05:41:44.162Z,11.60
2017-09-10T05:44:10.362Z,11.60
2017-09-10T05:46:37.423Z,11.60
2017-09-10T05:49:03.607Z,11.60
2017-09-10T05:51:29.754Z,11.70
2017-09-10T05:53:55.906Z,11.70
2017-09-10T05:56:22.092Z,11.70
2017-09-10T05:58:48.257Z,11.70
2017-09-10T06:01:15.200Z,11.70
2017-09-10T06:03:41.370Z,11.70
2017-09-10T06:06:07.519Z,11.70
2017-09-10T06:08:33.710Z,11.80
2017-09-10T06:11:00.066Z,11.80
2017-09-10T06:13:26.221Z,11.80
2017-09-10T06:15:52.439Z,11.90
2017-09-10T06:18:18.631Z,11.90
2017-09-10T06:20:45.004Z,11.90
2017-09-10T06:23:11.250Z,11.90
2017-09-10T06:25:37.459Z,11.90
2017-09-10T06:28:03.592Z,11.90
2017-09-10T06:30:29.713Z,11.90
2017-09-10T06:32:55.850Z,11.90
2017-09-10T06:35:22.774Z,12.00
2017-09-10T06:37:49.655Z,12.00
2017-09-10T06:40:16.887Z,12.00
2017-09-10T06:42:43.018Z,12.10
2017-09-10T06:45:09.199Z,12.10
2017-09-10T06:47:35.398Z,12.20
2017-09-10T06:50:01.593Z,12.20
2017-09-10T06:52:28.522Z,12.20
2017-09-10T06:54:54.724Z,12.20
2017-09-10T06:57:21.643Z,12.30
2017-09-10T06:59:47.887Z,12.30
2017-09-10T07:02:14.799Z,12.30
2017-09-10T07:04:40.960Z,12.30
2017-09-10T07:07:07.142Z,12.30
2017-09-10T07:09:33.318Z,12.30
2017-09-10T07:11:59.479Z,12.50
2017-09-10T07:14:25.681Z,12.70
2017-09-10T07:16:51.851Z,12.60
2017-09-10T07:19:18.002Z,12.60
2017-09-10T07:21:44.914Z,12.70
2017-09-10T07:24:11.082Z,12.70
2017-09-10T07:26:37.450Z,12.80
2017-09-10T07:29:04.352Z,12.90
2017-09-10T07:31:30.506Z,12.90
2017-09-10T07:33:56.691Z,12.90
2017-09-10T07:36:22.887Z,13.00
2017-09-10T07:38:49.058Z,13.10
2017-09-10T07:41:15.297Z,13.10
2017-09-10T07:43:41.492Z,13.10
2017-09-10T07:46:07.643Z,13.10
2017-09-10T07:48:33.823Z,13.20
2017-09-10T07:51:00.699Z,13.30
2017-09-10T07:53:26.892Z,13.30
2017-09-10T07:55:53.116Z,13.40
2017-09-10T07:58:19.274Z,13.40
2017-09-10T08:00:45.447Z,13.50
2017-09-10T08:03:11.617Z,13.50
2017-09-10T08:05:37.780Z,13.50
2017-09-10T08:08:03.980Z,13.60
2017-09-10T08:10:30.161Z,13.70
2017-09-10T08:12:56.330Z,13.80
2017-09-10T08:15:22.519Z,13.90
2017-09-10T08:17:48.690Z,14.00
2017-09-10T08:20:14.886Z,14.10
2017-09-10T08:22:41.104Z,14.10
2017-09-10T08:25:07.259Z,14.20
2017-09-10T08:27:33.435Z,14.10
2017-09-10T08:29:59.570Z,14.10
2017-09-10T08:32:25.750Z,14.10
2017-09-10T08:34:51.940Z,14.30
2017-09-10T08:37:18.188Z,14.20
2017-09-10T08:39:44.374Z,14.30
2017-09-10T08:42:10.588Z,14.40
2017-09-10T08:44:36.750Z,14.50
2017-09-10T08:47:02.927Z,14.50
2017-09-10T08:49:29.187Z,14.50
2017-09-10T08:51:56.113Z,14.40
2017-09-10T08:54:22.312Z,14.40
2017-09-10T08:56:48.516Z,14.40
2017-09-10T08:59:14.723Z,14.50
2017-09-10T09:01:40.980Z,14.50
2017-09-10T09:04:07.237Z,14.60
2017-09-10T09:06:33.432Z,14.60
2017-09-10T09:09:00.384Z,14.60
2017-09-10T09:11:26.799Z,14.60
2017-09-10T09:13:53.330Z,14.60
2017-09-10T09:16:19.526Z,14.70
2017-09-10T09:18:45.694Z,14.80
2017-09-10T09:21:11.878Z,14.70
2017-09-10T09:23:38.079Z,14.70
2017-09-10T09:26:04.681Z,14.70
2017-09-10T09:28:30.852Z,14.90
2017-09-10T09:30:57.019Z,14.80
2017-09-10T09:33:23.207Z,14.80
2017-09-10T09:35:50.165Z,15.00
2017-09-10T09:38:16.330Z,14.90
2017-09-10T09:40:42.522Z,15.10
2017-09-10T09:43:08.691Z,15.10
2017-09-10T09:45:34.891Z,15.20
2017-09-10T09:48:01.103Z,15.20
2017-09-10T09:50:28.076Z,15.20
2017-09-10T09:52:54.307Z,15.20
2017-09-10T09:55:20.508Z,15.30
2017-09-10T09:57:46.654Z,15.20
2017-09-10T10:00:12.815Z,15.30
2017-09-10T10:02:38.982Z,15.40
2017-09-10T10:05:05.921Z,15.50
2017-09-10T10:07:32.839Z,15.60
2017-09-10T10:09:59.572Z,15.60
2017-09-10T10:12:26.839Z,15.60
2017-09-10T10:14:53.017Z,15.70
2017-09-10T10:17:19.910Z,15.60
2017-09-10T10:19:46.032Z,15.60
2017-09-10T10:22:12.186Z,15.70
2017-09-10T10:24:38.335Z,15.80
2017-09-10T10:27:04.482Z,15.80
2017-09-10T10:29:32.179Z,15.80
2017-09-10T10:31:58.338Z,15.80
2017-09-10T10:34:24.506Z,15.90
2017-09-10T10:36:50.659Z,16.00
2017-09-10T10:39:16.817Z,16.00
2017-09-10T10:41:42.960Z,16.10
2017-09-10T10:44:09.106Z,16.30
2017-09-10T10:46:35.259Z,16.20
2017-09-10T10:49:01.414Z,16.30
2017-09-10T10:51:28.311Z,16.40
2017-09-10T10:53:54.438Z,16.40
2017-09-10T10:56:20.599Z,16.50
2017-09-10T10:58:46.738Z,16.50
2017-09-10T11:01:12.878Z,16.50
2017-09-10T11:03:39.016Z,16.50
2017-09-10T11:06:05.150Z,16.50
2017-09-10T11:08:31.362Z,16.50
2017-09-10T11:10:57.740Z,16.60
2017-09-10T11:13:24.631Z,16.60
2017-09-10T11:15:50.811Z,16.60
2017-09-10T11:18:16.993Z,16.70
2017-09-10T11:20:43.911Z,17.20
2017-09-10T11:23:10.071Z,17.20
2017-09-10T11:25:36.216Z,17.40
2017-09-10T11:28:04.172Z,17.70
2017-09-10T11:30:30.395Z,17.80
2017-09-10T11:32:56.551Z,17.50
2017-09-10T11:35:22.773Z,17.50
2017-09-10T11:37:48.919Z,17.60
2017-09-10T11:40:15.084Z,18.10
2017-09-10T11:42:41.979Z,18.40
2017-09-10T11:45:08.118Z,18.40
2017-09-10T11:47:35.011Z,18.70
2017-09-10T11:50:01.126Z,18.70
2017-09-10T11:52:28.915Z,18.70
2017-09-10T11:54:55.886Z,18.50
2017-09-10T11:57:22.100Z,18.50
2017-09-10T11:59:49.416Z,18.20
2017-09-10T12:02:15.825Z,18.30
2017-09-10T12:04:42.034Z,18.30
2017-09-10T12:07:08.170Z,18.70
2017-09-10T12:09:34.355Z,18.90
2017-09-10T12:12:00.745Z,19.00
2017-09-10T12:14:26.911Z,19.00
2017-09-10T12:16:53.123Z,18.70
2017-09-10T12:19:19.269Z,18.50
2017-09-10T12:21:45.510Z,18.50
2017-09-10T12:24:11.667Z,18.40
2017-09-10T12:26:37.792Z,18.40
2017-09-10T12:29:03.927Z,18.30
2017-09-10T12:31:30.095Z,18.30
2017-09-10T12:33:56.303Z,18.30
2017-09-10T12:36:23.215Z,18.00
2017-09-10T12:38:49.368Z,18.00
2017-09-10T12:41:15.501Z,18.10
2017-09-10T12:43:41.832Z,18.30
2017-09-10T12:46:07.970Z,18.40
2017-09-10T12:48:34.178Z,18.50
2017-09-10T12:51:00.327Z,18.60
2017-09-10T12:53:26.528Z,18.90
2017-09-10T12:55:53.414Z,18.60
2017-09-10T12:58:19.667Z,18.60
2017-09-10T13:00:45.828Z,18.50
2017-09-10T13:03:11.962Z,18.40
2017-09-10T13:05:38.119Z,18.30
2017-09-10T13:08:04.548Z,18.40
2017-09-10T13:10:32.735Z,18.40
2017-09-10T13:12:58.891Z,18.30
2017-09-10T13:15:25.081Z,18.30
2017-09-10T13:17:51.223Z,18.30
2017-09-10T13:20:17.417Z,18.10
2017-09-10T13:22:43.546Z,18.10
2017-09-10T13:25:16.195Z,18.00
2017-09-10T13:27:44.064Z,18.00
2017-09-10T13:30:10.276Z,18.00
2017-09-10T13:32:46.569Z,18.10
2017-09-10T13:35:12.905Z,18.00
2017-09-10T13:37:39.100Z,18.20
2017-09-10T13:40:05.279Z,18.30
2017-09-10T13:42:31.427Z,18.30
2017-09-10T13:44:58.514Z,18.30
2017-09-10T13:47:24.725Z,18.30
2017-09-10T13:49:50.852Z,18.40
2017-09-10T13:52:16.981Z,18.40
2017-09-10T13:54:43.123Z,18.50
2017-09-10T13:57:09.367Z,18.40
2017-09-10T13:59:35.678Z,18.50
2017-09-10T14:02:02.624Z,18.40
2017-09-10T14:04:28.778Z,18.40
2017-09-10T14:06:58.433Z,18.40
2017-09-10T14:09:24.651Z,18.40
2017-09-10T14:11:50.870Z,18.30
2017-09-10T14:14:17.026Z,18.30
2017-09-10T14:16:43.202Z,18.30
2017-09-10T14:19:09.349Z,18.30
2017-09-10T14:21:35.519Z,18.30
2017-09-10T14:24:01.731Z,18.30
2017-09-10T14:26:32.240Z,18.30
2017-09-10T14:28:58.387Z,18.30
2017-09-10T14:31:24.587Z,18.30
2017-09-10T14:33:51.111Z,18.40
2017-09-10T14:36:17.336Z,18.30
2017-09-10T14:38:44.499Z,18.30
2017-09-10T14:41:10.665Z,18.20
2017-09-10T14:43:36.830Z,18.30
2017-09-10T14:46:03.720Z,18.20
2017-09-10T14:48:29.889Z,18.20
2017-09-10T14:50:56.047Z,18.20
2017-09-10T14:53:22.210Z,18.30
2017-09-10T14:55:48.359Z,18.30
2017-09-10T14:58:14.524Z,18.30
2017-09-10T15:00:41.428Z,18.30
2017-09-10T15:03:14.823Z,18.30
2017-09-10T15:05:41.783Z,18.30
2017-09-10T15:08:07.982Z,18.30
2017-09-10T15:10:34.863Z,18.20
2017-09-10T15:13:01.046Z,18.20
2017-09-10T15:15:27.308Z,18.20
2017-09-10T15:17:54.250Z,18.20
2017-09-10T15:20:21.118Z,18.10
2017-09-10T15:22:48.343Z,18.10
2017-09-10T15:25:14.471Z,18.10
2017-09-10T15:27:40.767Z,18.10
2017-09-10T15:30:06.942Z,18.00
2017-09-10T15:32:33.107Z,18.00
2017-09-10T15:34:59.354Z,17.90
2017-09-10T15:37:25.548Z,18.00
2017-09-10T15:39:51.730Z,17.90
2017-09-10T15:42:17.978Z,17.90
2017-09-10T15:44:44.222Z,17.80
2017-09-10T15:47:10.372Z,17.70
2017-09-10T15:49:36.535Z,17.70
2017-09-10T15:52:02.750Z,17.60
2017-09-10T15:54:28.907Z,17.60
2017-09-10T15:56:55.046Z,17.60
2017-09-10T15:59:21.222Z,17.60
2017-09-10T16:01:47.421Z,17.60
2017-09-10T16:04:13.827Z,17.50
2017-09-10T16:06:40.737Z,17.40
2017-09-10T16:09:06.902Z,17.40
2017-09-10T16:11:33.031Z,17.40
2017-09-10T16:13:59.171Z,17.40
2017-09-10T16:16:25.298Z,17.30
2017-09-10T16:18:51.440Z,17.30
2017-09-10T16:21:17.614Z,17.20
2017-09-10T16:23:43.827Z,17.20
2017-09-10T16:26:12.433Z,17.20
2017-09-10T16:28:38.620Z,17.10
2017-09-10T16:31:05.551Z,17.10
2017-09-10T16:33:32.464Z,17.10
2017-09-10T16:35:58.610Z,17.10
2017-09-10T16:38:24.740Z,17.10
2017-09-10T16:40:50.896Z,17.10
2017-09-10T16:43:17.050Z,17.00
2017-09-10T16:45:43.183Z,17.00
2017-09-10T16:48:09.311Z,17.00
2017-09-10T16:50:35.489Z,17.00
2017-09-10T16:53:01.657Z,16.90
2017-09-10T16:55:27.821Z,16.90
2017-09-10T16:57:53.954Z,16.90
2017-09-10T17:00:21.114Z,16.90
2017-09-10T17:02:47.495Z,16.80
2017-09-10T17:05:13.678Z,16.80
2017-09-10T17:07:39.864Z,16.80
2017-09-10T17:10:09.711Z,16.80
2017-09-10T17:12:36.091Z,16.80
2017-09-10T17:15:02.824Z,16.80
2017-09-10T17:17:29.040Z,16.80
2017-09-10T17:19:55.252Z,16.80
2017-09-10T17:22:21.606Z,16.70
2017-09-10T17:24:47.796Z,16.80
2017-09-10T17:27:14.068Z,16.80
2017-09-10T17:29:40.249Z,16.60
2017-09-10T17:32:06.451Z,16.40
2017-09-10T17:34:32.718Z,16.40
2017-09-10T17:36:58.895Z,16.30
2017-09-10T17:39:25.296Z,16.20
2017-09-10T17:41:51.986Z,16.20
2017-09-10T17:44:18.903Z,16.10
2017-09-10T17:46:45.067Z,16.00
2017-09-10T17:49:11.236Z,16.00
2017-09-10T17:51:38.133Z,15.80
2017-09-10T17:54:04.282Z,15.80
2017-09-10T17:56:31.299Z,15.60
2017-09-10T17:58:58.182Z,15.40
2017-09-10T18:01:24.371Z,15.40
2017-09-10T18:03:50.537Z,15.30
2017-09-10T18:06:16.691Z,15.20
2017-09-10T18:08:42.931Z,15.20
2017-09-10T18:11:09.087Z,15.10
2017-09-10T18:13:35.252Z,15.00
2017-09-10T18:16:01.371Z,14.90
2017-09-10T18:18:27.572Z,14.80
2017-09-10T18:20:53.745Z,14.70
2017-09-10T18:23:20.699Z,14.60
2017-09-10T18:25:46.843Z,14.60
2017-09-10T18:28:14.316Z,14.60
2017-09-10T18:30:40.498Z,14.60
2017-09-10T18:33:06.659Z,14.50
2017-09-10T18:35:33.526Z,14.40
2017-09-10T18:37:59.668Z,14.40
2017-09-10T18:40:25.812Z,14.40
2017-09-10T18:42:51.952Z,14.20
2017-09-10T18:45:18.095Z,14.20
2017-09-10T18:47:44.454Z,14.10
2017-09-10T18:50:11.345Z,14.10
2017-09-10T18:52:37.511Z,14.20
2017-09-10T18:55:03.691Z,14.10
2017-09-10T18:57:29.885Z,14.10
2017-09-10T18:59:56.050Z,14.10
2017-09-10T19:02:23.337Z,14.10
2017-09-10T19:04:49.582Z,14.10
2017-09-10T19:07:16.487Z,14.10
2017-09-10T19:09:46.043Z,14.00
2017-09-10T19:12:12.173Z,14.00
2017-09-10T19:14:38.413Z,14.00
2017-09-10T19:17:04.712Z,13.90
2017-09-10T19:19:30.889Z,13.90
2017-09-10T19:21:57.015Z,13.90
2017-09-10T19:24:23.155Z,13.80
2017-09-10T19:26:49.347Z,13.80
2017-09-10T19:29:15.508Z,13.60
2017-09-10T19:31:42.378Z,13.60
2017-09-10T19:34:08.675Z,13.60
2017-09-10T19:36:35.993Z,13.60
2017-09-10T19:39:02.195Z,13.60
2017-09-10T19:41:29.179Z,13.50
2017-09-10T19:43:55.322Z,13.50
2017-09-10T19:46:21.479Z,13.40
2017-09-10T19:48:47.685Z,13.50
2017-09-10T19:51:13.858Z,13.40
2017-09-10T19:53:40.009Z,13.30
2017-09-10T19:56:06.160Z,13.30
2017-09-10T19:58:32.299Z,13.30
2017-09-10T20:00:58.488Z,13.30
2017-09-10T20:03:25.991Z,13.20
2017-09-10T20:05:52.179Z,13.30
2017-09-10T20:08:19.107Z,13.40
2017-09-10T20:10:46.051Z,13.40
2017-09-10T20:13:12.178Z,13.40
2017-09-10T20:15:38.355Z,13.50
2017-09-10T20:18:04.488Z,13.50
2017-09-10T20:20:31.402Z,13.50
2017-09-10T20:22:57.562Z,13.50
2017-09-10T20:25:24.189Z,13.40
2017-09-10T20:27:50.420Z,13.40
2017-09-10T20:30:16.651Z,13.40
2017-09-10T20:32:42.769Z,13.50
2017-09-10T20:35:09.892Z,13.50
2017-09-10T20:37:36.046Z,13.50
2017-09-10T20:40:02.226Z,13.50
2017-09-10T20:42:28.459Z,13.50
2017-09-10T20:44:54.661Z,13.50
2017-09-10T20:47:21.054Z,13.60
2017-09-10T20:49:47.287Z,13.60
2017-09-10T20:52:13.496Z,13.60
2017-09-10T20:54:39.667Z,13.70
2017-09-10T20:57:05.849Z,13.70
2017-09-10T20:59:31.972Z,13.60
2017-09-10T21:01:58.130Z,13.60
2017-09-10T21:04:24.270Z,13.60
2017-09-10T21:06:51.598Z,13.60
2017-09-10T21:09:21.118Z,13.60
2017-09-10T21:11:47.275Z,13.50
2017-09-10T21:14:13.418Z,13.50
2017-09-10T21:16:40.374Z,13.40
2017-09-10T21:19:06.526Z,13.40
2017-09-10T21:21:32.674Z,13.40
2017-09-10T21:23:59.549Z,13.30
2017-09-10T21:26:25.711Z,13.30
2017-09-10T21:28:51.874Z,13.20
2017-09-10T21:31:18.015Z,13.20
2017-09-10T21:33:44.165Z,13.10
2017-09-10T21:36:10.524Z,13.10
2017-09-10T21:38:36.739Z,13.00
2017-09-10T21:43:39.900Z,12.90
2017-09-10T21:46:06.052Z,12.90
2017-09-10T21:48:32.215Z,12.90
2017-09-10T21:50:58.447Z,12.90
2017-09-10T21:53:24.614Z,12.90
2017-09-10T21:55:50.761Z,12.90
2017-09-10T21:58:16.928Z,13.00
2017-09-10T22:00:43.054Z,13.10
2017-09-10T22:03:09.235Z,13.10
2017-09-10T22:05:35.365Z,13.10
2017-09-10T22:08:11.735Z,13.20
2017-09-10T22:10:37.918Z,13.20
2017-09-10T22:13:04.806Z,13.20
2017-09-10T22:15:30.934Z,13.20
2017-09-10T22:17:57.488Z,13.30
2017-09-10T22:20:23.640Z,13.30
2017-09-10T22:22:49.944Z,13.30
2017-09-10T22:25:16.178Z,13.30
2017-09-10T22:27:42.325Z,13.30
2017-09-10T22:30:09.252Z,13.30
2017-09-10T22:32:35.398Z,13.30
2017-09-10T22:35:01.573Z,13.30
2017-09-10T22:37:27.718Z,13.40
2017-09-10T22:39:54.122Z,13.40
2017-09-10T22:42:20.322Z,13.40
2017-09-10T22:44:47.202Z,13.30
2017-09-10T22:47:13.358Z,13.30
2017-09-10T22:49:39.535Z,13.30
2017-09-10T22:52:05.668Z,13.30
2017-09-10T22:54:31.931Z,13.40
2017-09-10T22:56:58.115Z,13.30
2017-09-10T22:59:25.010Z,13.30
2017-09-10T23:01:51.338Z,13.30
2017-09-10T23:04:17.496Z,13.40
2017-09-10T23:06:43.650Z,13.30
2017-09-10T23:09:09.842Z,13.30
2017-09-10T23:11:36.071Z,13.30
2017-09-10T23:14:02.245Z,13.40
2017-09-10T23:16:28.381Z,13.40
2017-09-10T23:18:54.540Z,13.40
2017-09-10T23:21:21.476Z,13.30
2017-09-10T23:23:47.615Z,13.30
2017-09-10T23:26:13.787Z,13.30
2017-09-10T23:28:39.940Z,13.30
2017-09-10T23:31:06.255Z,13.30
2017-09-10T23:33:32.398Z,13.30
2017-09-10T23:35:58.559Z,13.30
2017-09-10T23:38:25.459Z,13.30
2017-09-10T23:40:51.655Z,13.30
2017-09-10T23:43:17.796Z,13.30
2017-09-10T23:45:43.939Z,13.30
2017-09-10T23:48:10.085Z,13.30
2017-09-10T23:50:36.254Z,13.30
2017-09-10T23:53:02.394Z,13.30
2017-09-10T23:55:28.531Z,13.30
2017-09-10T23:57:54.659Z,13.30
